createdAt,value
2017-11-09T00:00:56.890Z,69.27
2017-11-09T00:03:24.339Z,75.80
2017-11-09T00:05:57.536Z,64.87
2017-11-09T00:08:24.995Z,68.10
2017-11-09T00:10:52.448Z,63.40
2017-11-09T00:13:20.018Z,64.63
2017-11-09T00:15:48.139Z,70.87
2017-11-09T00:18:15.591Z,79.97
2017-11-09T00:20:43.105Z,72.07
2017-11-09T00:23:10.559Z,74.03
2017-11-09T00:25:38.239Z,60.43
2017-11-09T00:28:05.699Z,78.97
2017-11-09T00:30:33.939Z,67.30
2017-11-09T00:33:01.399Z,68.77
2017-11-09T00:35:28.851Z,72.20
2017-11-09T00:37:56.312Z,71.90
2017-11-09T00:40:23.883Z,60.57
2017-11-09T00:42:52.066Z,80.57
2017-11-09T00:45:20.347Z,81.67
2017-11-09T00:47:47.796Z,76.13
2017-11-09T00:50:15.257Z,67.60
2017-11-09T00:52:43.330Z,70.23
2017-11-09T00:55:10.775Z,74.83
2017-11-09T00:57:38.242Z,76.97
2017-11-09T01:00:05.695Z,73.57
2017-11-09T01:02:34.781Z,74.37
2017-11-09T01:05:02.254Z,76.40
2017-11-09T01:07:29.706Z,73.50
2017-11-09T01:09:57.251Z,80.57
2017-11-09T01:12:24.711Z,69.30
2017-11-09T01:14:52.169Z,66.47
2017-11-09T01:17:20.419Z,74.93
2017-11-09T01:19:47.895Z,66.27
2017-11-09T01:22:15.341Z,68.33
2017-11-09T01:24:43.443Z,72.10
2017-11-09T01:27:12.115Z,76.47
2017-11-09T01:29:39.663Z,68.93
2017-11-09T01:32:07.228Z,73.57
2017-11-09T01:34:35.462Z,62.80
2017-11-09T01:37:02.919Z,60.53
2017-11-09T01:39:30.418Z,71.00
2017-11-09T01:41:58.681Z,75.43
2017-11-09T01:44:26.148Z,69.93
2017-11-09T01:46:53.742Z,91.50
2017-11-09T01:49:21.210Z,72.03
2017-11-09T01:51:48.732Z,100.77
2017-11-09T01:54:16.948Z,74.40
2017-11-09T01:56:44.454Z,73.20
2017-11-09T01:59:12.688Z,71.97
2017-11-09T02:01:40.157Z,73.07
2017-11-09T02:04:07.642Z,77.03
2017-11-09T02:06:35.105Z,64.70
2017-11-09T02:09:02.659Z,78.33
2017-11-09T02:11:30.129Z,76.93
2017-11-09T02:13:58.182Z,80.77
2017-11-09T02:16:25.647Z,78.97
2017-11-09T02:18:53.200Z,81.73
2017-11-09T02:21:20.652Z,73.10
2017-11-09T02:23:48.106Z,68.70
2017-11-09T02:26:15.571Z,68.43
2017-11-09T02:28:43.031Z,67.50
2017-11-09T02:31:10.483Z,64.77
2017-11-09T02:33:37.947Z,72.57
2017-11-09T02:36:05.403Z,83.00
2017-11-09T02:38:32.954Z,73.20
2017-11-09T02:41:00.440Z,76.43
2017-11-09T02:43:27.886Z,69.33
2017-11-09T02:45:55.338Z,71.80
2017-11-09T02:48:23.660Z,76.27
2017-11-09T02:50:51.171Z,81.97
2017-11-09T02:53:18.714Z,71.73
2017-11-09T02:55:46.187Z,81.27
2017-11-09T02:58:13.644Z,74.70
2017-11-09T03:00:41.099Z,76.47
2017-11-09T03:03:08.562Z,79.67
2017-11-09T03:05:36.820Z,90.57
2017-11-09T03:08:04.271Z,85.87
2017-11-09T03:10:32.511Z,92.37
2017-11-09T03:12:59.974Z,72.47
2017-11-09T03:15:27.426Z,84.37
2017-11-09T03:17:54.899Z,95.87
2017-11-09T03:20:22.361Z,77.67
2017-11-09T03:22:49.822Z,82.30
2017-11-09T03:25:17.286Z,79.53
2017-11-09T03:27:44.731Z,82.67
2017-11-09T03:30:12.318Z,83.40
2017-11-09T03:32:40.171Z,79.30
2017-11-09T03:35:07.640Z,80.93
2017-11-09T03:37:35.091Z,78.00
2017-11-09T03:40:02.561Z,79.50
2017-11-09T03:42:30.012Z,82.87
2017-11-09T03:44:58.255Z,89.57
2017-11-09T03:47:25.727Z,76.53
2017-11-09T03:49:53.179Z,84.87
2017-11-09T03:52:20.649Z,95.30
2017-11-09T03:54:48.107Z,90.03
2017-11-09T03:57:16.339Z,86.13
2017-11-09T03:59:43.795Z,93.63
2017-11-09T04:02:11.278Z,86.90
2017-11-09T04:04:38.743Z,80.40
2017-11-09T04:07:06.203Z,86.10
2017-11-09T04:09:34.084Z,80.80
2017-11-09T04:12:02.316Z,84.20
2017-11-09T04:14:29.763Z,83.23
2017-11-09T04:16:57.225Z,90.07
2017-11-09T04:19:24.674Z,98.00
2017-11-09T04:21:52.180Z,88.60
2017-11-09T04:24:19.709Z,90.17
2017-11-09T04:26:47.196Z,84.00
2017-11-09T04:29:14.750Z,82.27
2017-11-09T04:31:43.016Z,88.20
2017-11-09T04:34:10.489Z,98.60
2017-11-09T04:36:38.727Z,88.80
2017-11-09T04:39:06.217Z,92.03
2017-11-09T04:41:33.685Z,96.13
2017-11-09T04:44:01.913Z,100.30
2017-11-09T04:46:29.418Z,99.20
2017-11-09T04:48:56.896Z,112.50
2017-11-09T04:51:24.353Z,108.63
2017-11-09T04:53:52.528Z,100.80
2017-11-09T04:56:20.646Z,93.43
2017-11-09T04:58:48.137Z,105.87
2017-11-09T05:01:16.395Z,119.93
2017-11-09T05:03:43.888Z,115.43
2017-11-09T05:06:11.421Z,124.90
2017-11-09T05:08:38.901Z,97.87
2017-11-09T05:11:06.891Z,92.77
2017-11-09T05:13:34.354Z,96.30
2017-11-09T05:16:01.833Z,98.20
2017-11-09T05:18:29.361Z,102.93
2017-11-09T05:20:56.820Z,87.57
2017-11-09T05:23:24.293Z,87.90
2017-11-09T05:25:51.752Z,92.63
2017-11-09T05:28:19.225Z,101.27
2017-11-09T05:30:46.710Z,83.20
2017-11-09T05:33:14.941Z,105.83
2017-11-09T05:35:42.413Z,111.70
2017-11-09T05:38:10.696Z,108.67
2017-11-09T05:40:39.665Z,113.10
2017-11-09T05:43:07.143Z,102.47
2017-11-09T05:45:34.626Z,108.43
2017-11-09T05:48:02.869Z,96.87
2017-11-09T05:50:30.332Z,111.70
2017-11-09T05:52:57.901Z,109.37
2017-11-09T05:55:25.373Z,100.00
2017-11-09T05:57:53.609Z,106.00
2017-11-09T06:00:21.084Z,96.17
2017-11-09T06:02:48.549Z,97.47
2017-11-09T06:05:16.009Z,104.00
2017-11-09T06:07:43.561Z,107.53
2017-11-09T06:10:11.025Z,107.23
2017-11-09T06:12:38.587Z,104.40
2017-11-09T06:15:06.833Z,89.67
2017-11-09T06:17:34.314Z,106.80
2017-11-09T06:20:02.549Z,100.10
2017-11-09T06:22:30.044Z,105.63
2017-11-09T06:24:57.505Z,96.93
2017-11-09T06:27:25.732Z,92.63
2017-11-09T06:29:53.216Z,108.50
2017-11-09T06:32:21.444Z,101.73
2017-11-09T06:34:48.917Z,120.60
2017-11-09T06:37:16.385Z,101.93
2017-11-09T06:39:43.877Z,111.07
2017-11-09T06:42:11.432Z,104.70
2017-11-09T06:44:38.933Z,131.07
2017-11-09T06:47:06.448Z,99.40
2017-11-09T06:49:34.695Z,113.77
2017-11-09T06:52:02.174Z,116.13
2017-11-09T06:54:29.640Z,89.53
2017-11-09T06:56:57.099Z,139.43
2017-11-09T06:59:25.361Z,102.60
2017-11-09T07:01:52.825Z,129.77
2017-11-09T07:04:20.280Z,131.10
2017-11-09T07:06:47.834Z,124.70
2017-11-09T07:09:15.396Z,126.40
2017-11-09T07:11:42.965Z,120.43
2017-11-09T07:14:11.335Z,127.63
2017-11-09T07:16:39.113Z,119.57
2017-11-09T07:19:07.340Z,106.13
2017-11-09T07:21:34.929Z,90.03
2017-11-09T07:24:02.488Z,112.40
2017-11-09T07:26:29.965Z,120.63
2017-11-09T07:28:58.206Z,144.63
2017-11-09T07:31:25.661Z,128.10
2017-11-09T07:33:53.125Z,143.77
2017-11-09T07:36:20.613Z,114.27
2017-11-09T07:38:48.871Z,127.90
2017-11-09T07:41:16.349Z,111.33
2017-11-09T07:43:44.615Z,140.67
2017-11-09T07:46:12.852Z,146.97
2017-11-09T07:48:40.324Z,123.87
2017-11-09T07:51:07.795Z,136.60
2017-11-09T07:53:35.281Z,120.53
2017-11-09T07:56:02.856Z,118.77
2017-11-09T07:58:30.337Z,124.10
2017-11-09T08:00:57.841Z,128.10
2017-11-09T08:03:26.068Z,129.37
2017-11-09T08:05:53.547Z,132.27
2017-11-09T08:08:21.027Z,124.93
2017-11-09T08:10:49.248Z,121.53
2017-11-09T08:13:16.738Z,120.80
2017-11-09T08:15:45.036Z,118.30
2017-11-09T08:18:13.272Z,128.17
2017-11-09T08:20:40.745Z,119.00
2017-11-09T08:23:08.217Z,130.77
2017-11-09T08:25:38.665Z,115.57
2017-11-09T08:28:09.856Z,129.17
2017-11-09T08:30:39.108Z,137.53
2017-11-09T08:33:08.601Z,135.70
2017-11-09T08:35:36.836Z,123.40
2017-11-09T08:38:04.299Z,117.43
2017-11-09T08:40:31.768Z,106.23
2017-11-09T08:42:59.521Z,120.30
2017-11-09T08:45:27.760Z,100.30
2017-11-09T08:47:55.264Z,124.63
2017-11-09T08:50:22.741Z,126.90
2017-11-09T08:52:50.996Z,124.47
2017-11-09T08:55:18.466Z,103.03
2017-11-09T08:57:45.998Z,119.03
2017-11-09T09:00:13.568Z,116.07
2017-11-09T09:02:41.127Z,102.97
2017-11-09T09:05:08.605Z,110.53
2017-11-09T09:07:36.844Z,110.03
2017-11-09T09:10:04.324Z,100.20
2017-11-09T09:12:32.587Z,107.60
2017-11-09T09:15:00.777Z,109.00
2017-11-09T09:17:29.024Z,100.00
2017-11-09T09:19:57.010Z,108.50
2017-11-09T09:22:25.828Z,99.53
2017-11-09T09:24:54.197Z,101.93
2017-11-09T09:27:28.048Z,88.80
2017-11-09T09:30:10.405Z,114.77
2017-11-09T09:32:39.619Z,108.17
2017-11-09T09:38:16.891Z,87.33
2017-11-09T09:40:47.355Z,95.17
2017-11-09T09:43:14.822Z,99.07
2017-11-09T09:45:42.288Z,103.37
2017-11-09T09:48:09.781Z,98.30
2017-11-09T09:50:37.248Z,90.37
2017-11-09T09:53:04.717Z,89.50
2017-11-09T09:55:32.961Z,96.47
2017-11-09T09:58:00.421Z,90.50
2017-11-09T10:00:27.887Z,88.90
2017-11-09T10:02:55.522Z,93.30
2017-11-09T10:05:22.977Z,88.23
2017-11-09T10:07:50.437Z,93.30
2017-11-09T10:10:17.925Z,98.37
2017-11-09T10:12:45.390Z,96.47
2017-11-09T10:15:13.644Z,83.30
2017-11-09T10:17:41.109Z,85.13
2017-11-09T10:20:08.665Z,81.40
2017-11-09T10:22:36.490Z,88.87
2017-11-09T10:25:03.949Z,73.17
2017-11-09T10:27:31.446Z,80.03
2017-11-09T10:29:58.937Z,84.70
2017-11-09T10:32:33.609Z,78.77
2017-11-09T10:35:07.669Z,89.70
2017-11-09T10:37:35.896Z,85.43
2017-11-09T10:40:03.372Z,92.17
2017-11-09T10:42:30.864Z,73.47
2017-11-09T10:44:58.390Z,74.70
2017-11-09T10:47:26.621Z,73.67
2017-11-09T10:49:54.101Z,64.97
2017-11-09T10:52:21.576Z,62.93
2017-11-09T10:54:49.137Z,60.37
2017-11-09T10:57:16.623Z,61.67
2017-11-09T10:59:44.097Z,59.60
2017-11-09T11:02:11.571Z,61.37
2017-11-09T11:04:39.064Z,59.60
2017-11-09T11:07:06.540Z,57.40
2017-11-09T11:09:34.785Z,53.27
2017-11-09T11:12:02.241Z,48.00
2017-11-09T11:14:29.816Z,45.67
2017-11-09T11:16:57.281Z,49.67
2017-11-09T11:19:25.541Z,46.13
2017-11-09T11:21:53.104Z,52.17
2017-11-09T11:24:20.584Z,52.57
2017-11-09T11:26:48.845Z,49.60
2017-11-09T11:29:16.325Z,43.50
2017-11-09T11:31:43.801Z,47.30
2017-11-09T11:34:11.271Z,47.73
2017-11-09T11:36:38.768Z,35.90
2017-11-09T11:39:06.330Z,42.50
2017-11-09T11:41:33.894Z,44.60
2017-11-09T11:44:02.142Z,42.73
2017-11-09T11:46:29.612Z,32.47
2017-11-09T11:48:57.178Z,38.17
2017-11-09T11:51:25.433Z,38.83
2017-11-09T11:53:52.908Z,39.40
2017-11-09T11:56:20.376Z,35.57
2017-11-09T11:58:48.624Z,36.13
2017-11-09T12:01:16.110Z,34.07
2017-11-09T12:03:46.980Z,27.23
2017-11-09T12:06:14.492Z,25.77
2017-11-09T12:08:41.951Z,31.03
2017-11-09T12:11:09.420Z,25.40
2017-11-09T12:13:37.689Z,20.63
2017-11-09T12:16:05.916Z,24.37
2017-11-09T12:18:33.413Z,17.80
2017-11-09T12:21:00.970Z,13.10
2017-11-09T12:23:28.529Z,10.00
2017-11-09T12:25:55.988Z,12.40
2017-11-09T12:28:24.357Z,11.43
2017-11-09T12:30:52.588Z,11.27
2017-11-09T12:33:20.144Z,9.10
2017-11-09T12:35:47.652Z,5.10
2017-11-09T12:38:15.212Z,4.10
2017-11-09T12:40:42.661Z,1.73
2017-11-09T12:43:10.134Z,2.80
2017-11-09T12:45:38.907Z,3.33
2017-11-09T12:48:06.377Z,5.17
2017-11-09T12:50:33.989Z,1.87
2017-11-09T12:53:01.465Z,4.20
2017-11-09T12:55:28.937Z,4.93
2017-11-09T12:57:56.758Z,5.40
2017-11-09T13:00:24.276Z,3.93
2017-11-09T13:02:52.525Z,2.97
2017-11-09T13:05:20.008Z,10.87
2017-11-09T13:07:48.233Z,6.40
2017-11-09T13:10:15.708Z,4.60
2017-11-09T13:12:43.180Z,3.90
2017-11-09T13:15:10.645Z,1.87
2017-11-09T13:17:38.893Z,4.17
2017-11-09T13:20:06.364Z,4.03
2017-11-09T13:22:33.985Z,3.70
2017-11-09T13:25:01.448Z,6.10
2017-11-09T13:27:28.929Z,2.67
2017-11-09T13:29:56.413Z,2.47
2017-11-09T13:32:23.873Z,3.97
2017-11-09T13:34:52.120Z,11.10
2017-11-09T13:37:19.609Z,5.83
2017-11-09T13:39:47.852Z,4.57
2017-11-09T13:42:15.377Z,4.23
2017-11-09T13:44:42.889Z,4.63
2017-11-09T13:47:10.364Z,14.87
2017-11-09T13:49:38.606Z,3.73
2017-11-09T13:52:07.616Z,2.90
2017-11-09T13:54:35.844Z,11.77
2017-11-09T13:57:03.329Z,10.70
2017-11-09T13:59:30.793Z,2.90
2017-11-09T14:01:59.784Z,9.23
2017-11-09T14:04:27.341Z,7.80
2017-11-09T14:06:54.903Z,6.27
2017-11-09T14:09:22.464Z,10.80
2017-11-09T14:11:49.955Z,9.03
2017-11-09T14:14:18.179Z,16.30
2017-11-09T14:16:45.652Z,11.20
2017-11-09T14:19:13.131Z,18.33
2017-11-09T14:21:41.376Z,11.23
2017-11-09T14:24:08.828Z,7.70
2017-11-09T14:26:36.309Z,7.23
2017-11-09T14:29:03.765Z,9.57
2017-11-09T14:31:31.245Z,5.00
2017-11-09T14:33:58.706Z,4.70
2017-11-09T14:36:26.224Z,19.10
2017-11-09T14:38:53.700Z,11.10
2017-11-09T14:41:21.937Z,8.13
2017-11-09T14:43:49.512Z,7.20
2017-11-09T14:46:16.985Z,5.70
2017-11-09T14:48:44.440Z,5.47
2017-11-09T14:51:12.676Z,4.70
2017-11-09T14:53:41.056Z,4.20
2017-11-09T14:56:08.525Z,5.47
2017-11-09T14:58:36.139Z,11.03
2017-11-09T15:01:03.660Z,3.63
2017-11-09T15:03:31.129Z,8.20
2017-11-09T15:05:59.396Z,4.97
2017-11-09T15:08:26.866Z,6.87
2017-11-09T15:10:55.093Z,9.07
2017-11-09T15:13:22.565Z,5.33
2017-11-09T15:15:54.852Z,6.50
2017-11-09T15:18:22.405Z,5.47
2017-11-09T15:20:51.381Z,13.10
2017-11-09T15:23:18.856Z,3.60
2017-11-09T15:25:46.317Z,16.83
2017-11-09T15:28:14.549Z,4.00
2017-11-09T15:30:42.032Z,7.30
2017-11-09T15:33:09.492Z,8.40
2017-11-09T15:35:36.960Z,8.73
2017-11-09T15:38:04.511Z,11.97
2017-11-09T15:40:31.974Z,13.27
2017-11-09T15:42:59.434Z,10.93
2017-11-09T15:45:26.912Z,6.23
2017-11-09T15:47:55.155Z,7.60
2017-11-09T15:50:22.627Z,14.97
2017-11-09T15:52:51.609Z,14.60
2017-11-09T15:55:19.929Z,7.43
2017-11-09T15:57:47.385Z,8.43
2017-11-09T16:00:15.069Z,12.57
2017-11-09T16:02:42.558Z,7.67
2017-11-09T16:05:10.845Z,5.77
2017-11-09T16:07:39.244Z,15.03
2017-11-09T16:10:07.472Z,8.73
2017-11-09T16:12:35.083Z,12.40
2017-11-09T16:15:03.331Z,11.73
2017-11-09T16:17:30.796Z,11.50
2017-11-09T16:19:59.051Z,12.27
2017-11-09T16:22:26.612Z,10.40
2017-11-09T16:24:54.850Z,14.03
2017-11-09T16:27:23.185Z,13.80
2017-11-09T16:29:51.451Z,14.43
2017-11-09T16:32:18.918Z,15.53
2017-11-09T16:34:47.157Z,15.30
2017-11-09T16:37:14.620Z,21.27
2017-11-09T16:39:42.860Z,14.27
2017-11-09T16:42:10.374Z,12.53
2017-11-09T16:44:38.606Z,13.70
2017-11-09T16:47:06.053Z,13.60
2017-11-09T16:49:33.529Z,16.87
2017-11-09T16:52:01.065Z,20.20
2017-11-09T16:54:28.568Z,23.57
2017-11-09T16:56:57.561Z,17.63
2017-11-09T16:59:25.093Z,18.03
2017-11-09T17:01:52.584Z,15.70
2017-11-09T17:04:20.829Z,12.60
2017-11-09T17:06:48.301Z,23.57
2017-11-09T17:09:16.589Z,24.77
2017-11-09T17:11:44.823Z,17.10
2017-11-09T17:14:12.304Z,19.70
2017-11-09T17:16:39.773Z,16.23
2017-11-09T17:19:10.087Z,24.23
2017-11-09T17:21:37.656Z,20.03
2017-11-09T17:24:05.220Z,27.87
2017-11-09T17:26:32.726Z,21.20
2017-11-09T17:29:00.969Z,36.13
2017-11-09T17:31:29.835Z,25.33
2017-11-09T17:33:57.400Z,25.43
2017-11-09T17:36:24.965Z,29.93
2017-11-09T17:38:52.518Z,33.03
2017-11-09T17:41:20.076Z,31.43
2017-11-09T17:43:48.774Z,29.60
2017-11-09T17:46:17.059Z,37.07
2017-11-09T17:48:45.329Z,27.50
2017-11-09T17:51:13.569Z,40.93
2017-11-09T17:53:41.053Z,39.97
2017-11-09T17:56:09.310Z,36.63
2017-11-09T17:58:37.577Z,51.37
2017-11-09T18:01:05.051Z,42.13
2017-11-09T18:03:36.154Z,46.67
2017-11-09T18:06:03.625Z,41.97
2017-11-09T18:08:31.105Z,48.67
2017-11-09T18:10:58.684Z,41.90
2017-11-09T18:13:26.923Z,45.43
2017-11-09T18:15:54.396Z,48.07
2017-11-09T18:18:21.956Z,44.40
2017-11-09T18:20:49.432Z,49.10
2017-11-09T18:23:21.681Z,62.07
2017-11-09T18:25:49.152Z,52.57
2017-11-09T18:28:17.729Z,37.63
2017-11-09T18:30:45.280Z,43.03
2017-11-09T18:33:12.747Z,44.43
2017-11-09T18:35:40.994Z,39.50
2017-11-09T18:38:08.464Z,56.93
2017-11-09T18:40:35.928Z,49.03
2017-11-09T18:43:03.400Z,58.53
2017-11-09T18:45:31.641Z,39.30
2017-11-09T18:47:59.212Z,45.70
2017-11-09T18:50:26.774Z,51.20
2017-11-09T18:52:54.364Z,53.67
2017-11-09T18:55:21.857Z,44.80
2017-11-09T18:57:49.344Z,45.57
2017-11-09T19:00:17.356Z,41.80
2017-11-09T19:02:47.291Z,41.40
2017-11-09T19:05:14.765Z,56.50
2017-11-09T19:07:42.262Z,45.17
2017-11-09T19:10:10.497Z,41.97
2017-11-09T19:12:37.965Z,44.57
2017-11-09T19:15:05.540Z,51.87
2017-11-09T19:17:33.824Z,45.40
2017-11-09T19:20:01.280Z,48.40
2017-11-09T19:22:30.576Z,47.97
2017-11-09T19:25:01.033Z,39.03
2017-11-09T19:27:29.257Z,55.57
2017-11-09T19:29:56.731Z,55.50
2017-11-09T19:32:25.022Z,56.03
2017-11-09T19:34:53.274Z,51.47
2017-11-09T19:37:20.748Z,52.97
2017-11-09T19:39:48.225Z,64.10
2017-11-09T19:42:16.472Z,41.87
2017-11-09T19:44:43.949Z,39.70
2017-11-09T19:47:12.189Z,37.40
2017-11-09T19:49:40.480Z,46.87
2017-11-09T19:52:07.951Z,39.70
2017-11-09T19:54:36.212Z,35.57
2017-11-09T19:57:03.765Z,50.33
2017-11-09T19:59:31.257Z,55.53
2017-11-09T20:01:58.736Z,57.23
2017-11-09T20:04:27.017Z,42.13
2017-11-09T20:06:54.476Z,44.53
2017-11-09T20:09:21.954Z,36.47
2017-11-09T20:11:49.416Z,29.17
2017-11-09T20:14:17.819Z,36.00
2017-11-09T20:16:46.071Z,50.77
2017-11-09T20:19:14.184Z,42.30
2017-11-09T20:21:41.717Z,44.87
2017-11-09T20:24:09.633Z,42.57
2017-11-09T20:26:37.102Z,59.27
2017-11-09T20:29:04.569Z,54.40
2017-11-09T20:31:32.080Z,31.90
2017-11-09T20:34:00.309Z,44.87
2017-11-09T20:36:27.879Z,35.20
2017-11-09T20:38:55.373Z,36.37
2017-11-09T20:41:23.600Z,39.97
2017-11-09T20:43:51.091Z,43.23
2017-11-09T20:46:18.571Z,54.63
2017-11-09T20:48:46.041Z,43.17
2017-11-09T20:51:13.825Z,52.70
2017-11-09T20:53:41.329Z,41.03
2017-11-09T20:56:11.476Z,53.30
2017-11-09T20:58:39.293Z,62.67
2017-11-09T21:01:09.746Z,68.10
2017-11-09T21:03:38.811Z,56.73
2017-11-09T21:06:06.300Z,44.17
2017-11-09T21:08:34.557Z,50.37
2017-11-09T21:11:02.844Z,38.23
2017-11-09T21:13:30.364Z,72.30
2017-11-09T21:15:58.761Z,50.53
2017-11-09T21:18:26.956Z,61.40
2017-11-09T21:20:55.186Z,68.57
2017-11-09T21:23:22.668Z,51.83
2017-11-09T21:25:50.144Z,51.47
2017-11-09T21:28:18.379Z,60.37
2017-11-09T21:30:45.864Z,69.13
2017-11-09T21:33:14.488Z,54.13
2017-11-09T21:35:42.772Z,89.07
2017-11-09T21:38:10.260Z,63.33
2017-11-09T21:40:37.724Z,71.17
2017-11-09T21:43:05.286Z,78.63
2017-11-09T21:45:32.764Z,93.87
2017-11-09T21:48:00.303Z,103.30
2017-11-09T21:50:28.548Z,124.03
2017-11-09T21:52:56.026Z,125.50
2017-11-09T21:55:23.615Z,106.60
2017-11-09T21:57:51.840Z,109.80
2017-11-09T22:00:19.429Z,105.17
2017-11-09T22:02:46.937Z,115.03
2017-11-09T22:05:14.416Z,95.40
2017-11-09T22:07:41.886Z,108.87
2017-11-09T22:10:09.509Z,99.63
2017-11-09T22:12:37.009Z,117.03
2017-11-09T22:15:04.573Z,107.77
2017-11-09T22:17:32.041Z,93.63
2017-11-09T22:19:59.609Z,109.47
2017-11-09T22:22:27.863Z,120.13
2017-11-09T22:24:55.333Z,90.73
2017-11-09T22:27:23.575Z,115.13
2017-11-09T22:29:51.373Z,86.80
2017-11-09T22:32:18.848Z,85.07
2017-11-09T22:34:46.312Z,56.47
2017-11-09T22:37:13.778Z,62.77
2017-11-09T22:39:41.261Z,70.53
2017-11-09T22:42:08.755Z,58.60
2017-11-09T22:44:36.990Z,57.07
2017-11-09T22:47:04.464Z,60.23
2017-11-09T22:49:32.046Z,43.33
2017-11-09T22:51:59.508Z,42.07
2017-11-09T22:54:27.760Z,42.60
2017-11-09T22:56:55.237Z,46.23
2017-11-09T22:59:23.496Z,44.80
2017-11-09T23:01:50.979Z,29.20
2017-11-09T23:04:19.220Z,26.80
2017-11-09T23:06:46.688Z,27.83
2017-11-09T23:09:14.262Z,34.27
2017-11-09T23:11:42.513Z,38.07
2017-11-09T23:14:09.977Z,30.00
2017-11-09T23:16:38.157Z,33.50
2017-11-09T23:19:05.721Z,24.67
2017-11-09T23:21:33.219Z,32.77
2017-11-09T23:24:00.736Z,36.30
2017-11-09T23:26:28.293Z,37.07
2017-11-09T23:28:57.379Z,27.30
2017-11-09T23:31:24.854Z,29.60
2017-11-09T23:33:53.170Z,34.00
2017-11-09T23:36:20.656Z,31.87
2017-11-09T23:38:48.135Z,28.83
2017-11-09T23:41:15.593Z,29.20
2017-11-09T23:43:43.856Z,34.83
2017-11-09T23:46:11.315Z,34.83
2017-11-09T23:48:38.793Z,27.87
2017-11-09T23:51:07.056Z,40.00
2017-11-09T23:53:34.528Z,46.13
2017-11-09T23:56:02.772Z,63.83
2017-11-09T23:58:30.256Z,40.67
